< < Back
Terminal Aerodrome Forecast


Current Version              Previous Versions:   1  2  3  4  5  6  7  8  9  

Terminal Aerodrome Forecast

699
FTUS42 KGSP 301100
TAFAND
TAF
KAND 301123Z 3012/3112 06003KT P6SM SKC
     FM301800 18006KT P6SM BKN050
     FM310000 00000KT P6SM VCTS BKN060CB
     FM310600 00000KT P6SM BKN045=

Latest METAR

012
SAUS70 KWBC 310400
MTRAND
METAR KAND 310356Z AUTO 00000KT 10SM OVC075 24/23 A3013 RMK AO2 SLP192
T02440228


USA.gov is the U.S. government's official web portal to all federal, state and local government web resources and services.